Daytona Beach International Airport
KDAB : now visible

Airfield :











YOU CAN JOIN US ON...

 
LOGIN :

Register | Disclaimer

   EN    FR    IT 

 









Legend :    VFR   Marginal VFR   IFR   Intensive IFR   Very Intensive IFR
Visi :
Ceiling :
>= 8 km
>= 3000ft
5 to 8 km
1000 to 3000 ft
1500m to 5 km
500 to 1000 ft
800 to 1500m
200 to 500 ft
< 800m
< 200 ft
Symbols :   Thunderstorms  Fog  Heavy snow  Heavy precipitations  Wind > 20 kt






- Airport Elevation : 34 ft
- IATA code : DAB


KDAB - Daytona Beach International

CURRENT METAR :
  • 161553Z 05010KT 10SM FEW023 SCT029TCU SCT046 BKN200 31/26 A3013 RMK AO2 SLP201 TCU NE T03060256

EXPIRED METARs :
  • 161453Z 06008KT 10SM FEW022 SCT029 BKN037 BKN200 29/26 A3013 RMK AO2 SLP201 T02940256 51008
  • 161353Z 04004KT 10SM FEW025 FEW085 SCT200 29/25 A3012 RMK AO2 SLP197 CB DSNT NE E T02890250

TAF KDAB
Valid from the 16 at 12:00 until the 17 at 12:00 UTC


161143Z 1612/1712 VRB02KT P6SM SCT090 SCT200
FM161400 06005KT P6SM SCT030 SCT250
FM161800 07011KT P6SM SCT040 SCT250
FM170300 VRB02KT P6SM FEW020 SCT250
KZJX FIR / North America



MET'MAP, your aeronautical weather chart ! - Copyright ORBIFLY December 2007 - Disclaimer

ORBIFLY MET'MAP TEAM :

Programming & Development : Alexandra Zaïnal
Concept & original design : Baudouin d'Aumeries
Assistance for programming : Marc-Olivier Méhu
Technical & hardware support : Manuel Goepfert

Contact : metmap@orbifly.com




SOURCES & CREDITS :

   NOAA       Earth
Advisory